Time;durP1;ratioP1;P1;durP2;ratioP2;P2;SDS_P1;SDS_P2;PMS_P1;PMS_P2;Temp;Humidity;BMP_temperature;BMP_pressure;BME280_temperature;BME280_humidity;BME280_pressure;Samples;Min_cycle;Max_cycle;Signal;HPM_P1;HPM_P2
2023/05/26 00:00:12;;;;;;;5.70;4.57;;;14.90;99.90;;;;;;5115407;28;20665;-62
2023/05/26 00:02:39;;;;;;;7.50;4.10;;;14.90;99.90;;;;;;5115607;27;20207;-59
2023/05/26 00:05:07;;;;;;;9.90;5.10;;;14.90;99.90;;;;;;5115462;28;20207;-60
2023/05/26 00:07:34;;;;;;;6.97;4.73;;;14.80;99.90;;;;;;5114986;28;20220;-61
2023/05/26 00:10:00;;;;;;;7.83;4.73;;;14.80;99.90;;;;;;5115086;28;20208;-60
2023/05/26 00:12:27;;;;;;;8.27;5.13;;;14.70;99.90;;;;;;5115186;28;20205;-59
2023/05/26 00:14:55;;;;;;;8.63;4.57;;;14.80;99.90;;;;;;5115274;28;20207;-60
2023/05/26 00:17:22;;;;;;;7.20;5.03;;;14.80;99.90;;;;;;5115119;28;20227;-60
2023/05/26 00:19:52;;;;;;;5.67;4.80;;;14.70;99.90;;;;;;5115122;28;20212;-60
2023/05/26 00:22:19;;;;;;;6.97;4.43;;;14.70;99.90;;;;;;5115069;28;20207;-60
2023/05/26 00:24:45;;;;;;;6.67;5.10;;;14.70;99.90;;;;;;5115271;28;20203;-59
2023/05/26 00:27:13;;;;;;;6.17;4.83;;;14.70;99.90;;;;;;5114549;28;20726;-60
2023/05/26 00:29:41;;;;;;;6.13;4.87;;;14.70;99.90;;;;;;5115004;28;20203;-59
2023/05/26 00:32:09;;;;;;;5.77;4.97;;;14.70;99.90;;;;;;5114848;28;20352;-60
2023/05/26 00:34:36;;;;;;;9.00;4.90;;;14.60;99.90;;;;;;5114740;28;20208;-60
2023/05/26 00:37:03;;;;;;;5.73;4.60;;;14.60;99.90;;;;;;5114632;28;20220;-61
2023/05/26 00:39:31;;;;;;;6.87;3.97;;;14.60;99.90;;;;;;5114350;28;20204;-60
2023/05/26 00:41:58;;;;;;;6.60;4.60;;;14.60;99.90;;;;;;5114486;28;20199;-61
2023/05/26 00:44:25;;;;;;;7.77;5.40;;;14.60;99.90;;;;;;5114759;28;20618;-59
2023/05/26 00:46:51;;;;;;;6.20;4.60;;;14.60;99.90;;;;;;5114152;28;20232;-59
2023/05/26 00:49:19;;;;;;;5.70;4.23;;;14.60;99.90;;;;;;5114309;28;20207;-59
2023/05/26 00:51:46;;;;;;;8.10;4.90;;;14.60;99.90;;;;;;5114492;28;20231;-60
2023/05/26 00:54:14;;;;;;;7.73;5.00;;;14.60;99.90;;;;;;5114553;28;20227;-61
2023/05/26 00:56:41;;;;;;;6.07;4.87;;;14.60;99.90;;;;;;5113874;28;20326;-60
2023/05/26 00:59:11;;;;;;;8.20;5.20;;;14.60;99.90;;;;;;5114398;28;20295;-60
2023/05/26 01:01:38;;;;;;;6.97;5.30;;;14.50;99.90;;;;;;5114516;28;20195;-61
2023/05/26 01:04:05;;;;;;;5.13;4.63;;;14.60;99.90;;;;;;5114288;28;20209;-59
2023/05/26 01:06:33;;;;;;;7.47;4.60;;;14.50;99.90;;;;;;5113795;28;20232;-61
2023/05/26 01:09:00;;;;;;;11.93;4.80;;;14.50;99.90;;;;;;5107184;22;20228;-63
2023/05/26 01:11:32;;;;;;;7.23;5.20;;;14.50;99.90;;;;;;5080354;28;20228;-63
2023/05/26 01:14:06;;;;;;;7.47;5.40;;;14.50;99.90;;;;;;5079172;28;20205;-62
2023/05/26 01:16:39;;;;;;;7.77;5.00;;;14.50;99.90;;;;;;5077950;28;20224;-63
2023/05/26 01:19:24;;;;;;;7.93;5.30;;;14.50;99.90;;;;;;5077394;28;20601;-63
2023/05/26 01:22:02;;;;;;;7.80;5.17;;;14.50;99.90;;;;;;5076955;28;20205;-63
2023/05/26 01:24:38;;;;;;;7.10;5.17;;;14.60;99.90;;;;;;5076645;28;20671;-63
2023/05/26 01:27:14;;;;;;;6.93;5.63;;;14.60;99.90;;;;;;5076599;28;20213;-62
2023/05/26 01:29:43;;;;;;;5.97;5.00;;;14.70;99.90;;;;;;5076823;28;20208;-63
2023/05/26 01:32:16;;;;;;;9.33;5.47;;;14.80;99.90;;;;;;5076267;28;20294;-62
2023/05/26 01:34:43;;;;;;;5.90;4.57;;;14.90;99.90;;;;;;5075913;28;20205;-63
2023/05/26 01:37:10;;;;;;;6.37;5.23;;;14.90;99.90;;;;;;5075218;28;20212;-62
2023/05/26 01:39:37;;;;;;;6.10;4.67;;;15.00;99.90;;;;;;5076315;28;20235;-63
2023/05/26 01:42:13;;;;;;;9.87;5.50;;;15.00;99.90;;;;;;5075833;28;20197;-63
2023/05/26 01:44:46;;;;;;;5.93;5.10;;;14.90;99.90;;;;;;5075650;28;20205;-62
2023/05/26 01:47:15;;;;;;;6.97;5.10;;;14.90;99.90;;;;;;5074765;28;20259;-63
2023/05/26 01:49:46;;;;;;;7.03;4.73;;;14.90;99.90;;;;;;5075239;28;20204;-63
2023/05/26 01:52:16;;;;;;;10.57;5.47;;;14.80;99.90;;;;;;5075040;28;20216;-63
2023/05/26 01:54:48;;;;;;;7.97;4.87;;;14.80;99.90;;;;;;5075439;28;20205;-63
2023/05/26 01:57:16;;;;;;;6.70;5.07;;;14.80;99.90;;;;;;5075585;28;20212;-62
2023/05/26 01:59:44;;;;;;;9.30;5.07;;;14.70;99.90;;;;;;5075816;28;20231;-62
2023/05/26 02:02:11;;;;;;;9.47;5.10;;;14.70;99.90;;;;;;5075103;28;20201;-63
2023/05/26 02:04:38;;;;;;;9.40;5.37;;;14.60;99.90;;;;;;5075652;28;20212;-63
2023/05/26 02:07:08;;;;;;;7.40;5.37;;;14.50;99.90;;;;;;5074839;28;20224;-63
2023/05/26 02:09:35;;;;;;;9.83;6.13;;;14.40;99.90;;;;;;5075381;28;20320;-62
2023/05/26 02:12:02;;;;;;;11.07;6.27;;;14.40;99.90;;;;;;5075189;28;20266;-62
2023/05/26 02:14:29;;;;;;;9.63;6.23;;;14.30;99.90;;;;;;5075387;28;20211;-63
2023/05/26 02:16:57;;;;;;;11.13;6.53;;;14.30;99.90;;;;;;5074838;28;20217;-64
2023/05/26 02:19:25;;;;;;;9.90;6.73;;;14.20;99.90;;;;;;5075208;28;20208;-63
2023/05/26 02:21:51;;;;;;;11.50;7.20;;;14.20;99.90;;;;;;5074895;28;20247;-62
2023/05/26 02:24:19;;;;;;;9.23;6.53;;;14.10;99.90;;;;;;5074756;28;20204;-64
2023/05/26 02:26:46;;;;;;;12.03;7.80;;;14.10;99.90;;;;;;5074579;28;20208;-62
2023/05/26 02:29:13;;;;;;;11.40;7.30;;;14.00;99.90;;;;;;5074603;28;20278;-62
2023/05/26 02:31:40;;;;;;;10.73;6.87;;;14.00;99.90;;;;;;5074398;28;20233;-63
2023/05/26 02:34:10;;;;;;;9.77;6.80;;;14.00;99.90;;;;;;5074771;28;20666;-62
2023/05/26 02:36:37;;;;;;;8.20;5.47;;;13.90;99.90;;;;;;5074226;28;20213;-63
2023/05/26 02:39:03;;;;;;;7.57;5.70;;;13.80;99.90;;;;;;5074317;28;20729;-62
2023/05/26 02:41:30;;;;;;;8.73;5.90;;;13.70;99.90;;;;;;5074442;28;20682;-62
2023/05/26 02:43:57;;;;;;;9.10;5.83;;;13.70;99.90;;;;;;5074632;28;20643;-62
2023/05/26 02:46:24;;;;;;;9.80;6.73;;;13.60;99.90;;;;;;5074239;28;20208;-63
2023/05/26 02:48:51;;;;;;;14.57;7.43;;;13.60;99.90;;;;;;5074320;28;20236;-62
2023/05/26 02:51:19;;;;;;;8.03;6.60;;;13.50;99.90;;;;;;5073978;28;20350;-62
2023/05/26 02:53:46;;;;;;;10.07;5.97;;;13.50;99.90;;;;;;5074253;28;20299;-62
2023/05/26 02:56:13;;;;;;;8.80;5.43;;;13.50;99.90;;;;;;5074574;28;20670;-62
2023/05/26 02:58:40;;;;;;;7.30;5.83;;;13.50;99.90;;;;;;5074164;28;20615;-62
2023/05/26 03:01:07;;;;;;;8.17;5.90;;;13.40;99.90;;;;;;5074672;28;20251;-63
2023/05/26 03:03:35;;;;;;;8.53;5.60;;;13.40;99.90;;;;;;5078745;28;20213;-63
2023/05/26 03:06:02;;;;;;;7.90;5.63;;;13.30;99.90;;;;;;5078646;28;20205;-63
2023/05/26 03:08:30;;;;;;;8.17;5.80;;;13.30;99.90;;;;;;5079132;28;20244;-63
2023/05/26 03:10:57;;;;;;;7.47;5.50;;;13.20;99.90;;;;;;5078616;28;20208;-63
2023/05/26 03:13:24;;;;;;;10.27;5.93;;;13.20;99.90;;;;;;5079097;28;20208;-63
2023/05/26 03:15:52;;;;;;;8.07;5.40;;;13.20;99.90;;;;;;5079103;28;20204;-63
2023/05/26 03:18:18;;;;;;;8.90;6.20;;;13.20;99.90;;;;;;5078623;28;20609;-63
2023/05/26 03:20:46;;;;;;;7.30;5.57;;;13.10;99.90;;;;;;5078408;28;20201;-63
2023/05/26 03:23:14;;;;;;;8.43;6.00;;;13.20;99.90;;;;;;5078338;28;20640;-64
2023/05/26 03:25:42;;;;;;;9.63;5.77;;;13.10;99.90;;;;;;5078194;28;20216;-64
2023/05/26 03:28:09;;;;;;;9.43;5.93;;;13.10;99.90;;;;;;5078422;28;20240;-63
2023/05/26 03:30:35;;;;;;;9.47;6.00;;;13.10;99.90;;;;;;5078369;28;20215;-64
2023/05/26 03:33:02;;;;;;;7.50;6.13;;;13.20;99.90;;;;;;5078329;28;20235;-62
2023/05/26 03:35:29;;;;;;;7.63;6.07;;;13.30;99.90;;;;;;5079060;28;20551;-63
2023/05/26 03:37:56;;;;;;;9.83;6.70;;;13.40;99.90;;;;;;5078609;28;20232;-63
2023/05/26 03:40:22;;;;;;;7.23;5.80;;;13.50;99.90;;;;;;5079451;28;20370;-62
2023/05/26 03:42:51;;;;;;;7.07;5.30;;;13.60;99.90;;;;;;5080697;28;20204;-64
2023/05/26 03:45:17;;;;;;;9.90;5.93;;;13.60;99.90;;;;;;5080380;28;20205;-64
2023/05/26 03:47:44;;;;;;;7.90;5.93;;;13.70;99.90;;;;;;5080522;28;20252;-62
2023/05/26 03:50:11;;;;;;;8.67;5.80;;;13.70;99.90;;;;;;5081008;28;20231;-62
2023/05/26 03:52:38;;;;;;;8.53;5.73;;;13.70;99.90;;;;;;5081513;28;20273;-63
2023/05/26 03:55:10;;;;;;;7.87;5.83;;;13.80;99.90;;;;;;5080316;28;20216;-63
2023/05/26 03:57:37;;;;;;;9.23;6.43;;;13.80;99.90;;;;;;5078083;28;20248;-63
2023/05/26 04:00:07;;;;;;;9.73;6.17;;;13.90;99.90;;;;;;5078408;28;20215;-64
2023/05/26 04:02:34;;;;;;;7.87;6.10;;;14.00;99.90;;;;;;5078266;28;20232;-63
2023/05/26 04:05:01;;;;;;;7.13;5.80;;;14.00;99.90;;;;;;5077910;28;20204;-63
2023/05/26 04:07:28;;;;;;;9.97;6.83;;;14.10;99.90;;;;;;5077692;28;20236;-63
2023/05/26 04:09:55;;;;;;;12.03;7.00;;;14.20;99.90;;;;;;5077984;28;20212;-64
2023/05/26 04:12:22;;;;;;;7.80;6.77;;;14.20;99.90;;;;;;5079938;28;20319;-62
2023/05/26 04:14:49;;;;;;;9.60;6.60;;;14.30;99.90;;;;;;5079151;28;20212;-63
2023/05/26 04:17:17;;;;;;;9.03;6.87;;;14.50;99.90;;;;;;5080483;28;20205;-63
2023/05/26 04:19:44;;;;;;;14.43;8.37;;;14.60;99.90;;;;;;5080858;28;20209;-63
2023/05/26 04:22:11;;;;;;;11.17;6.40;;;14.70;99.90;;;;;;5080041;28;20201;-63
2023/05/26 04:24:37;;;;;;;10.27;6.13;;;14.90;99.90;;;;;;5078110;28;20224;-62
2023/05/26 04:27:07;;;;;;;9.90;6.60;;;15.00;99.90;;;;;;5077048;28;20611;-62
2023/05/26 04:29:34;;;;;;;11.30;6.73;;;15.10;99.90;;;;;;5077400;28;20205;-63
2023/05/26 04:32:01;;;;;;;7.70;6.60;;;15.30;99.90;;;;;;5076694;28;20217;-63
2023/05/26 04:34:29;;;;;;;9.13;6.77;;;15.40;99.90;;;;;;5077380;28;20209;-63
2023/05/26 04:36:55;;;;;;;9.30;6.83;;;15.60;99.90;;;;;;5077002;28;20259;-63
2023/05/26 04:39:22;;;;;;;13.47;8.57;;;15.70;99.90;;;;;;5076959;28;20205;-63
2023/05/26 04:41:49;;;;;;;11.30;7.30;;;15.90;99.90;;;;;;5079773;28;20209;-62
2023/05/26 04:44:18;;;;;;;10.80;6.47;;;16.00;99.90;;;;;;5078151;28;20553;-63
2023/05/26 04:46:45;;;;;;;7.13;5.70;;;16.20;99.90;;;;;;5076726;28;20278;-63
2023/05/26 04:49:13;;;;;;;7.13;5.45;;;16.30;99.90;;;;;;5077031;28;20225;-63
2023/05/26 04:51:41;;;;;;;8.30;5.40;;;16.50;99.90;;;;;;5078235;28;20255;-63
2023/05/26 04:54:08;;;;;;;7.57;5.97;;;16.70;99.90;;;;;;5078055;28;20201;-63
2023/05/26 04:56:34;;;;;;;8.40;5.35;;;16.80;99.90;;;;;;5077885;28;20212;-63
2023/05/26 04:59:02;;;;;;;9.82;5.90;;;16.80;99.90;;;;;;5078117;28;20252;-63
2023/05/26 05:01:32;;;;;;;7.03;5.47;;;16.80;99.90;;;;;;5079375;28;20300;-63
2023/05/26 05:03:59;;;;;;;7.82;5.28;;;16.80;99.90;;;;;;5079003;28;20213;-63
2023/05/26 05:06:25;;;;;;;16.75;8.50;;;16.80;99.90;;;;;;5077461;28;20204;-64
2023/05/26 05:08:53;;;;;;;15.35;10.05;;;16.90;99.90;;;;;;5077089;28;20241;-63
2023/05/26 05:11:20;;;;;;;10.27;6.70;;;16.90;99.90;;;;;;5078966;28;20608;-64
2023/05/26 05:13:47;;;;;;;7.90;6.38;;;17.10;99.90;;;;;;5078906;28;20225;-64
2023/05/26 05:16:14;;;;;;;9.52;6.55;;;17.40;99.90;;;;;;5078938;28;20205;-64
2023/05/26 05:18:41;;;;;;;7.53;5.63;;;18.20;99.90;;;;;;5076227;28;20235;-63
2023/05/26 05:21:08;;;;;;;8.80;5.80;;;19.30;99.90;;;;;;5075617;28;20215;-65
2023/05/26 05:23:34;;;;;;;8.05;5.18;;;20.60;99.90;;;;;;5076135;28;20445;-66
2023/05/26 05:26:03;;;;;;;19.83;13.80;;;21.10;99.90;;;;;;5075158;28;20209;-64
2023/05/26 05:28:30;;;;;;;9.68;6.18;;;21.00;99.90;;;;;;5076035;28;20224;-64
2023/05/26 05:30:57;;;;;;;12.93;5.85;;;20.90;99.90;;;;;;5076837;28;20212;-64
2023/05/26 05:33:23;;;;;;;9.90;5.50;;;21.60;99.90;;;;;;5076264;28;20228;-63
2023/05/26 05:35:50;;;;;;;7.40;5.07;;;22.30;99.90;;;;;;5077474;28;20291;-64
2023/05/26 05:38:17;;;;;;;9.18;5.05;;;22.60;99.90;;;;;;5076509;28;20422;-64
2023/05/26 05:40:44;;;;;;;8.57;4.82;;;23.20;98.50;;;;;;5077685;28;20201;-63
2023/05/26 05:43:12;;;;;;;6.85;4.60;;;24.00;96.20;;;;;;5077123;28;20279;-65
2023/05/26 05:45:39;;;;;;;8.73;5.13;;;24.50;95.40;;;;;;5075636;28;20704;-65
2023/05/26 05:48:06;;;;;;;12.25;4.95;;;25.30;93.60;;;;;;5077030;28;20235;-64
2023/05/26 05:50:32;;;;;;;7.07;4.63;;;26.60;91.50;;;;;;5077020;28;20259;-65
2023/05/26 05:52:59;;;;;;;8.38;4.90;;;28.00;87.20;;;;;;5077477;28;20224;-65
2023/05/26 05:55:26;;;;;;;10.98;5.55;;;29.10;82.60;;;;;;5076581;28;20205;-65
2023/05/26 05:57:53;;;;;;;9.55;5.18;;;28.90;79.50;;;;;;5076842;28;20225;-65
2023/05/26 06:00:22;;;;;;;9.95;4.82;;;28.00;80.00;;;;;;5076755;28;20634;-64
2023/05/26 06:02:48;;;;;;;11.13;5.75;;;27.70;81.90;;;;;;5077654;28;20200;-65
2023/05/26 06:05:15;;;;;;;8.00;4.68;;;27.50;80.60;;;;;;5076693;28;20573;-65
2023/05/26 06:07:42;;;;;;;8.25;4.38;;;28.20;78.80;;;;;;5076996;28;20237;-64
2023/05/26 06:10:09;;;;;;;8.48;4.85;;;28.20;77.30;;;;;;5076564;28;20658;-65
2023/05/26 06:12:36;;;;;;;12.05;5.45;;;28.20;77.30;;;;;;5077585;28;20598;-65
2023/05/26 06:15:03;;;;;;;7.18;4.43;;;28.70;76.30;;;;;;5076639;28;20234;-64
2023/05/26 06:17:31;;;;;;;8.75;4.35;;;29.20;74.70;;;;;;5075825;28;20232;-65
2023/05/26 06:19:58;;;;;;;9.52;4.78;;;30.30;71.50;;;;;;5076998;28;20254;-64
2023/05/26 06:22:24;;;;;;;6.70;4.50;;;31.30;69.00;;;;;;5075601;28;20207;-64
2023/05/26 06:24:51;;;;;;;9.27;4.63;;;31.30;67.10;;;;;;5075846;28;20670;-64
2023/05/26 06:27:18;;;;;;;9.68;4.45;;;31.10;67.30;;;;;;5075498;28;20232;-64
2023/05/26 06:29:45;;;;;;;7.03;4.07;;;31.20;66.30;;;;;;5076585;28;20204;-63
2023/05/26 06:32:12;;;;;;;6.03;4.15;;;32.00;65.30;;;;;;5076406;28;20231;-64
2023/05/26 06:34:40;;;;;;;6.25;4.30;;;32.10;63.20;;;;;;5075728;28;20215;-63
2023/05/26 06:37:06;;;;;;;8.93;5.10;;;31.00;65.40;;;;;;5074372;28;20209;-63
2023/05/26 06:39:33;;;;;;;9.30;4.28;;;31.40;64.10;;;;;;5074721;28;20205;-64
2023/05/26 06:42:00;;;;;;;8.38;4.20;;;32.10;63.00;;;;;;5074273;28;20209;-64
2023/05/26 06:44:26;;;;;;;8.10;3.80;;;33.10;59.60;;;;;;5074122;28;20211;-63
2023/05/26 06:46:53;;;;;;;8.88;4.22;;;34.10;58.10;;;;;;5074415;28;20205;-64
2023/05/26 06:49:20;;;;;;;6.28;4.10;;;34.60;55.90;;;;;;5076430;28;20581;-64
2023/05/26 06:51:48;;;;;;;7.88;4.03;;;34.30;56.40;;;;;;5077792;28;20212;-64
2023/05/26 06:54:15;;;;;;;7.10;4.25;;;34.30;55.60;;;;;;5077856;28;20220;-64
2023/05/26 06:56:42;;;;;;;6.60;3.78;;;34.90;55.00;;;;;;5077390;28;20581;-64
2023/05/26 06:59:10;;;;;;;11.02;4.40;;;35.20;53.70;;;;;;5074547;28;20319;-64
2023/05/26 07:01:37;;;;;;;9.18;4.32;;;35.40;52.70;;;;;;5074617;28;20201;-64
2023/05/26 07:04:03;;;;;;;8.25;4.55;;;35.50;52.00;;;;;;5075117;28;20203;-63
2023/05/26 07:06:30;;;;;;;6.75;4.10;;;35.60;51.70;;;;;;5074626;28;20215;-65
2023/05/26 07:08:58;;;;;;;7.75;4.22;;;34.80;52.60;;;;;;5075057;28;20232;-63
2023/05/26 07:11:25;;;;;;;10.60;4.82;;;33.50;54.60;;;;;;5074675;28;20201;-63
2023/05/26 07:13:52;;;;;;;9.35;4.38;;;32.70;55.50;;;;;;5074731;28;20662;-62
2023/05/26 07:16:19;;;;;;;9.43;4.50;;;32.70;55.70;;;;;;5074217;28;20643;-63
2023/05/26 07:18:46;;;;;;;9.55;4.18;;;32.60;55.60;;;;;;5075519;28;20225;-62
2023/05/26 07:21:14;;;;;;;8.48;4.68;;;32.40;56.10;;;;;;5074810;28;20585;-63
2023/05/26 07:23:41;;;;;;;7.88;3.95;;;33.20;55.50;;;;;;5073886;28;20201;-62
2023/05/26 07:26:09;;;;;;;9.02;4.47;;;34.30;53.40;;;;;;5073849;28;20212;-63
2023/05/26 07:28:36;;;;;;;7.57;4.60;;;34.90;52.30;;;;;;5073799;28;20224;-63
2023/05/26 07:31:03;;;;;;;6.15;4.25;;;33.90;53.80;;;;;;5074288;28;20211;-62
2023/05/26 07:33:29;;;;;;;6.20;4.13;;;33.40;54.70;;;;;;5073986;28;20228;-62
2023/05/26 07:35:57;;;;;;;6.82;4.32;;;33.90;53.20;;;;;;5073966;28;20205;-63
2023/05/26 07:38:24;;;;;;;11.07;4.68;;;33.50;54.40;;;;;;5074281;28;20224;-63
2023/05/26 07:40:51;;;;;;;7.97;4.22;;;34.40;52.70;;;;;;5074711;28;20625;-63
2023/05/26 07:43:19;;;;;;;7.53;4.25;;;35.80;51.50;;;;;;5074643;28;20247;-63
2023/05/26 07:45:46;;;;;;;9.07;4.68;;;36.10;50.40;;;;;;5074752;28;20533;-63
2023/05/26 07:48:14;;;;;;;6.57;3.80;;;35.70;50.80;;;;;;5075098;28;20229;-63
2023/05/26 07:50:41;;;;;;;7.10;4.25;;;36.50;49.80;;;;;;5080380;28;20227;-64
2023/05/26 07:53:08;;;;;;;9.32;4.65;;;37.30;48.50;;;;;;5078766;28;20225;-63
2023/05/26 07:55:35;;;;;;;8.45;4.47;;;36.50;49.50;;;;;;5078440;28;20205;-64
2023/05/26 07:58:01;;;;;;;10.70;5.25;;;37.20;48.60;;;;;;5078191;28;20724;-64
2023/05/26 08:00:29;;;;;;;8.55;4.63;;;38.00;47.10;;;;;;5079119;28;20210;-63
2023/05/26 08:02:56;;;;;;;7.32;4.10;;;37.80;47.00;;;;;;5077879;28;20208;-64
2023/05/26 08:05:24;;;;;;;8.45;4.43;;;37.90;46.90;;;;;;5078652;28;20213;-64
2023/05/26 08:07:51;;;;;;;6.93;4.55;;;38.30;46.20;;;;;;5077432;28;20707;-63
2023/05/26 08:10:18;;;;;;;8.13;4.70;;;37.90;46.30;;;;;;5073071;28;20438;-61
2023/05/26 08:12:45;;;;;;;5.57;3.85;;;37.10;47.20;;;;;;5076456;28;20226;-62
2023/05/26 08:15:15;;;;;;;11.00;4.72;;;36.10;48.00;;;;;;5074481;28;20702;-61
2023/05/26 08:17:44;;;;;;;9.25;4.82;;;35.60;49.00;;;;;;5075257;28;20705;-63
2023/05/26 08:20:11;;;;;;;8.57;4.78;;;35.30;49.10;;;;;;5077643;28;20205;-62
2023/05/26 08:22:38;;;;;;;6.72;4.28;;;35.40;48.90;;;;;;5075034;28;20208;-60
2023/05/26 08:25:05;;;;;;;9.15;4.82;;;35.70;49.10;;;;;;5074608;28;20589;-63
2023/05/26 08:27:32;;;;;;;9.25;4.80;;;36.20;47.80;;;;;;5074052;28;20225;-60
2023/05/26 08:29:59;;;;;;;6.10;4.22;;;36.50;47.20;;;;;;5074914;28;20213;-60
2023/05/26 08:32:26;;;;;;;8.13;4.57;;;35.70;49.00;;;;;;5074707;28;20215;-61
2023/05/26 08:34:54;;;;;;;8.88;5.10;;;35.50;49.00;;;;;;5074694;28;20225;-60
2023/05/26 08:37:20;;;;;;;8.95;5.18;;;35.70;48.30;;;;;;5074427;28;20221;-60
2023/05/26 08:39:47;;;;;;;8.40;5.15;;;35.30;48.20;;;;;;5074437;28;20212;-60
2023/05/26 08:42:18;;;;;;;6.78;4.90;;;33.60;50.40;;;;;;5074132;28;20212;-59
2023/05/26 08:44:45;;;;;;;9.02;5.00;;;31.50;53.30;;;;;;5074701;28;20209;-59
2023/05/26 08:47:12;;;;;;;10.50;5.10;;;29.60;56.90;;;;;;5074449;28;20213;-59
2023/05/26 08:49:46;;;;;;;10.23;5.00;;;28.50;58.50;;;;;;5074746;28;20212;-59
2023/05/26 08:52:16;;;;;;;8.90;4.93;;;27.60;59.40;;;;;;5075108;28;20212;-61
2023/05/26 08:54:44;;;;;;;8.98;4.90;;;26.90;61.30;;;;;;5074773;28;20267;-59
2023/05/26 08:57:13;;;;;;;11.25;5.68;;;26.20;63.30;;;;;;5075163;28;20207;-58
2023/05/26 08:59:40;;;;;;;9.07;5.25;;;25.50;65.80;;;;;;5075533;28;20220;-58
2023/05/26 09:02:09;;;;;;;8.57;5.40;;;24.80;68.40;;;;;;5076081;28;20622;-59
2023/05/26 09:04:36;;;;;;;8.75;5.43;;;24.30;69.80;;;;;;5073993;28;20560;-59
2023/05/26 09:07:02;;;;;;;9.57;5.57;;;23.70;71.20;;;;;;5075968;28;20205;-63
2023/05/26 09:09:30;;;;;;;10.40;5.35;;;23.20;74.20;;;;;;5076686;28;20708;-63
2023/05/26 09:11:57;;;;;;;7.30;4.88;;;23.00;74.90;;;;;;5076069;28;20215;-61
2023/05/26 09:14:24;;;;;;;9.75;4.93;;;22.80;76.10;;;;;;5075678;28;20440;-61
2023/05/26 09:16:52;;;;;;;9.15;5.10;;;22.90;76.40;;;;;;5076126;28;20212;-62
2023/05/26 09:19:19;;;;;;;11.05;5.05;;;23.00;76.60;;;;;;5078899;28;20667;-61
2023/05/26 09:21:48;;;;;;;9.65;5.22;;;23.00;77.40;;;;;;5076793;28;20576;-63
2023/05/26 09:24:16;;;;;;;10.30;5.15;;;22.80;77.30;;;;;;5076340;28;20277;-60
2023/05/26 09:26:46;;;;;;;12.07;5.38;;;22.80;77.90;;;;;;5075571;28;20209;-61
2023/05/26 09:29:13;;;;;;;10.70;5.05;;;22.80;78.40;;;;;;5076566;28;20231;-61
2023/05/26 09:31:40;;;;;;;8.95;4.88;;;22.80;78.10;;;;;;5075884;28;20205;-59
2023/05/26 09:34:07;;;;;;;10.60;4.93;;;22.70;77.80;;;;;;5074903;28;20239;-61
2023/05/26 09:36:36;;;;;;;6.63;4.32;;;22.70;77.10;;;;;;5073574;28;20663;-60
2023/05/26 09:39:03;;;;;;;9.43;5.15;;;22.80;78.00;;;;;;5074126;28;20698;-60
2023/05/26 09:41:37;;;;;;;9.13;4.55;;;22.80;79.40;;;;;;5072948;28;20212;-60
2023/05/26 09:44:15;;;;;;;7.20;4.55;;;22.90;79.30;;;;;;5073093;28;20246;-61
2023/05/26 09:46:43;;;;;;;9.90;4.97;;;22.90;79.80;;;;;;5072396;28;20685;-59
2023/05/26 09:49:13;;;;;;;7.78;4.85;;;22.90;83.20;;;;;;5072895;28;20231;-60
2023/05/26 09:51:40;;;;;;;10.93;4.90;;;22.80;84.00;;;;;;5072743;28;20261;-60
2023/05/26 09:54:08;;;;;;;9.68;5.32;;;22.80;83.70;;;;;;5072615;28;20227;-59
2023/05/26 09:56:41;;;;;;;10.07;5.15;;;22.80;84.00;;;;;;5074496;28;20212;-62
2023/05/26 09:59:10;;;;;;;14.00;5.60;;;22.80;86.00;;;;;;5073915;28;20232;-62
2023/05/26 10:01:38;;;;;;;7.30;4.90;;;22.80;86.00;;;;;;5074836;28;20212;-63
2023/05/26 10:04:07;;;;;;;9.38;5.20;;;22.80;87.10;;;;;;5075263;28;20579;-61
2023/05/26 10:06:36;;;;;;;11.98;5.20;;;22.80;87.60;;;;;;5074923;28;20675;-63
2023/05/26 10:09:04;;;;;;;9.02;5.32;;;22.80;88.30;;;;;;5057036;28;20286;-63
2023/05/26 10:11:34;;;;;;;11.38;5.28;;;23.00;87.80;;;;;;5073073;28;20208;-60
2023/05/26 10:14:03;;;;;;;8.13;4.97;;;23.20;87.60;;;;;;5074155;28;20232;-61
2023/05/26 10:16:30;;;;;;;11.57;5.55;;;23.30;87.00;;;;;;5074691;28;20212;-61
2023/05/26 10:18:59;;;;;;;10.70;6.07;;;23.50;86.30;;;;;;5075091;28;20232;-62
2023/05/26 10:21:32;;;;;;;9.63;4.55;;;23.70;86.00;;;;;;5074953;28;20212;-60
2023/05/26 10:24:05;;;;;;;8.95;4.82;;;24.00;86.10;;;;;;5074238;28;20291;-61
2023/05/26 10:26:41;;;;;;;10.10;5.47;;;24.20;86.00;;;;;;5074371;28;20215;-63
2023/05/26 10:29:10;;;;;;;9.48;4.75;;;24.10;85.50;;;;;;5074063;28;20224;-61
2023/05/26 10:31:40;;;;;;;10.43;5.10;;;23.90;85.10;;;;;;5073937;28;20205;-65
2023/05/26 10:34:14;;;;;;;10.57;5.00;;;23.90;85.80;;;;;;5073434;28;20237;-61
2023/05/26 10:36:42;;;;;;;7.38;4.45;;;23.80;84.80;;;;;;5072751;28;20258;-64
2023/05/26 10:39:12;;;;;;;9.50;4.93;;;23.80;86.20;;;;;;5074251;28;20317;-62
2023/05/26 10:41:40;;;;;;;9.77;5.47;;;23.80;86.00;;;;;;5075427;28;20235;-61
2023/05/26 10:44:27;;;;;;;6.60;4.65;;;23.90;86.20;;;;;;5075448;28;20201;-61
2023/05/26 10:47:04;;;;;;;8.48;4.53;;;24.20;84.20;;;;;;5075207;28;20681;-62
2023/05/26 10:49:36;;;;;;;10.00;4.93;;;24.30;83.40;;;;;;5076723;28;20640;-62
2023/05/26 10:52:11;;;;;;;9.35;5.07;;;24.30;84.40;;;;;;5076156;28;20258;-62
2023/05/26 10:54:38;;;;;;;9.07;4.88;;;24.50;84.30;;;;;;5076316;28;20250;-63
2023/05/26 10:57:06;;;;;;;9.20;4.57;;;24.70;84.10;;;;;;5075465;28;20780;-63
2023/05/26 10:59:35;;;;;;;6.07;4.28;;;24.90;84.00;;;;;;5076387;28;20208;-63
2023/05/26 11:02:04;;;;;;;11.57;4.80;;;25.00;81.60;;;;;;5077111;28;20213;-62
2023/05/26 11:04:42;;;;;;;6.82;4.38;;;25.00;82.20;;;;;;5076374;28;20212;-63
2023/05/26 11:07:16;;;;;;;6.80;4.50;;;25.10;80.40;;;;;;5077451;28;20208;-62
2023/05/26 11:09:57;;;;;;;9.57;4.40;;;25.00;80.40;;;;;;5077341;28;20216;-62
2023/05/26 11:12:24;;;;;;;6.97;4.63;;;24.80;82.40;;;;;;5076856;28;20231;-62
2023/05/26 11:14:51;;;;;;;9.43;4.30;;;24.70;82.40;;;;;;5075663;28;20225;-62
2023/05/26 11:17:19;;;;;;;7.78;4.63;;;24.60;81.30;;;;;;5076676;28;20236;-62
2023/05/26 11:19:55;;;;;;;8.55;4.20;;;24.50;80.90;;;;;;5077600;28;20215;-63
2023/05/26 11:22:22;;;;;;;8.15;4.20;;;24.50;79.80;;;;;;5078328;28;20204;-61
2023/05/26 11:24:51;;;;;;;8.85;4.55;;;24.50;80.80;;;;;;5081182;28;20208;-63
2023/05/26 11:27:18;;;;;;;6.05;4.10;;;24.40;80.40;;;;;;5081028;28;20231;-62
2023/05/26 11:29:47;;;;;;;7.10;4.30;;;24.50;80.70;;;;;;5081944;28;20208;-63
2023/05/26 11:32:14;;;;;;;8.18;4.47;;;24.50;81.70;;;;;;5081587;28;20423;-63
2023/05/26 11:34:41;;;;;;;9.98;5.40;;;24.50;82.70;;;;;;5081888;28;20227;-62
2023/05/26 11:37:10;;;;;;;8.48;4.22;;;24.70;80.80;;;;;;5081317;28;20204;-63
2023/05/26 11:39:38;;;;;;;7.63;4.43;;;24.90;81.60;;;;;;5081998;28;20262;-62
2023/05/26 11:42:11;;;;;;;7.85;4.53;;;25.10;80.90;;;;;;5081744;28;20205;-63
2023/05/26 11:44:38;;;;;;;7.20;4.38;;;25.10;80.40;;;;;;5082603;28;20232;-63
2023/05/26 11:47:06;;;;;;;8.07;3.97;;;24.60;81.20;;;;;;5081257;28;20230;-63
2023/05/26 11:49:33;;;;;;;9.10;4.25;;;24.50;81.50;;;;;;5080778;28;20272;-64
2023/05/26 11:52:00;;;;;;;9.43;4.85;;;24.40;80.80;;;;;;5080772;28;20590;-63
2023/05/26 11:54:28;;;;;;;6.38;4.15;;;24.50;81.20;;;;;;5081153;28;20225;-61
2023/05/26 11:56:55;;;;;;;7.43;4.32;;;24.50;81.50;;;;;;5081070;28;20208;-61
2023/05/26 11:59:22;;;;;;;8.75;4.00;;;24.50;81.60;;;;;;5081488;28;20221;-62
2023/05/26 12:01:49;;;;;;;9.02;4.68;;;24.50;82.30;;;;;;5079646;28;20208;-61
2023/05/26 12:04:26;;;;;;;9.02;4.40;;;24.60;82.10;;;;;;5079366;28;20201;-62
2023/05/26 12:06:53;;;;;;;6.47;3.95;;;24.90;80.80;;;;;;5079536;28;20208;-62
2023/05/26 12:09:21;;;;;;;8.60;4.40;;;25.10;80.40;;;;;;5079797;28;20232;-62
2023/05/26 12:11:51;;;;;;;8.07;4.60;;;25.20;80.10;;;;;;5079984;28;20205;-62
2023/05/26 12:14:18;;;;;;;5.82;3.65;;;25.40;78.90;;;;;;5080342;28;20224;-63
2023/05/26 12:16:46;;;;;;;7.70;4.20;;;25.40;77.80;;;;;;5079300;28;20624;-62
2023/05/26 12:19:16;;;;;;;8.05;4.32;;;25.30;77.90;;;;;;5078935;28;20228;-62
2023/05/26 12:21:44;;;;;;;8.68;4.45;;;25.30;78.50;;;;;;5079885;28;20218;-63
2023/05/26 12:24:12;;;;;;;9.85;4.55;;;25.40;78.30;;;;;;5079491;28;20205;-63
2023/05/26 12:26:39;;;;;;;5.07;4.03;;;25.40;77.00;;;;;;5079670;28;20212;-63
2023/05/26 12:29:12;;;;;;;7.57;4.47;;;25.40;78.80;;;;;;5079087;28;20225;-63
2023/05/26 12:31:44;;;;;;;9.25;3.97;;;25.40;78.30;;;;;;5079024;28;20216;-63
2023/05/26 12:34:12;;;;;;;8.13;4.00;;;25.50;78.90;;;;;;5079548;28;20227;-62
2023/05/26 12:36:39;;;;;;;7.10;4.38;;;25.30;77.60;;;;;;5079650;28;20209;-63
2023/05/26 12:39:07;;;;;;;8.38;3.92;;;25.10;77.80;;;;;;5080292;28;20224;-62
2023/05/26 12:41:34;;;;;;;11.18;4.57;;;25.00;78.00;;;;;;5078726;28;20216;-63
2023/05/26 12:44:01;;;;;;;6.45;3.97;;;25.00;78.00;;;;;;5078436;28;20209;-63
2023/05/26 12:46:30;;;;;;;8.40;3.67;;;24.90;77.90;;;;;;5078398;28;20209;-63
2023/05/26 12:48:57;;;;;;;7.00;4.10;;;25.00;78.00;;;;;;5079091;28;20229;-63